sensor_id;sensor_type;location;lat;lon;timestamp;P1;durP1;ratioP1;P2;durP2;ratioP2
23302;SDS011;11820;48.738;9.092;2024-03-22T00:01:43;8.87;;;6.87;;
23302;SDS011;11820;48.738;9.092;2024-03-22T00:04:09;8.03;;;7.23;;
23302;SDS011;11820;48.738;9.092;2024-03-22T00:06:34;13.47;;;7.70;;
23302;SDS011;11820;48.738;9.092;2024-03-22T00:09:00;9.90;;;7.27;;
23302;SDS011;11820;48.738;9.092;2024-03-22T00:11:25;8.23;;;7.43;;
23302;SDS011;11820;48.738;9.092;2024-03-22T00:13:50;11.33;;;8.20;;
23302;SDS011;11820;48.738;9.092;2024-03-22T00:16:16;9.63;;;7.23;;
23302;SDS011;11820;48.738;9.092;2024-03-22T00:18:41;9.13;;;7.87;;
23302;SDS011;11820;48.738;9.092;2024-03-22T00:21:06;10.43;;;8.07;;
23302;SDS011;11820;48.738;9.092;2024-03-22T00:23:32;12.73;;;8.30;;
23302;SDS011;11820;48.738;9.092;2024-03-22T00:25:57;8.83;;;7.77;;
23302;SDS011;11820;48.738;9.092;2024-03-22T00:28:22;9.33;;;7.53;;
23302;SDS011;11820;48.738;9.092;2024-03-22T00:30:48;13.77;;;7.37;;
23302;SDS011;11820;48.738;9.092;2024-03-22T00:33:13;10.90;;;8.77;;
23302;SDS011;11820;48.738;9.092;2024-03-22T00:35:38;8.03;;;7.23;;
23302;SDS011;11820;48.738;9.092;2024-03-22T00:38:03;8.73;;;7.53;;
23302;SDS011;11820;48.738;9.092;2024-03-22T00:40:29;9.53;;;7.17;;
23302;SDS011;11820;48.738;9.092;2024-03-22T00:42:54;8.67;;;7.77;;
23302;SDS011;11820;48.738;9.092;2024-03-22T00:45:20;10.40;;;8.27;;
23302;SDS011;11820;48.738;9.092;2024-03-22T00:47:45;8.77;;;7.60;;
23302;SDS011;11820;48.738;9.092;2024-03-22T00:50:10;9.03;;;7.87;;
23302;SDS011;11820;48.738;9.092;2024-03-22T00:52:36;8.00;;;7.20;;
23302;SDS011;11820;48.738;9.092;2024-03-22T00:55:01;11.60;;;7.47;;
23302;SDS011;11820;48.738;9.092;2024-03-22T00:57:26;9.23;;;7.40;;
23302;SDS011;11820;48.738;9.092;2024-03-22T00:59:51;9.33;;;7.27;;
23302;SDS011;11820;48.738;9.092;2024-03-22T01:02:17;11.43;;;8.60;;
23302;SDS011;11820;48.738;9.092;2024-03-22T01:04:42;8.53;;;7.73;;
23302;SDS011;11820;48.738;9.092;2024-03-22T01:07:07;9.23;;;7.60;;
23302;SDS011;11820;48.738;9.092;2024-03-22T01:09:33;8.93;;;8.03;;
23302;SDS011;11820;48.738;9.092;2024-03-22T01:11:58;8.43;;;7.53;;
23302;SDS011;11820;48.738;9.092;2024-03-22T01:14:23;11.13;;;8.70;;
23302;SDS011;11820;48.738;9.092;2024-03-22T01:16:49;12.63;;;8.53;;
23302;SDS011;11820;48.738;9.092;2024-03-22T01:19:14;11.80;;;8.50;;
23302;SDS011;11820;48.738;9.092;2024-03-22T01:21:39;8.70;;;7.37;;
23302;SDS011;11820;48.738;9.092;2024-03-22T01:24:05;9.43;;;8.00;;
23302;SDS011;11820;48.738;9.092;2024-03-22T01:26:30;9.03;;;7.87;;
23302;SDS011;11820;48.738;9.092;2024-03-22T01:28:55;11.43;;;8.73;;
23302;SDS011;11820;48.738;9.092;2024-03-22T01:31:21;11.17;;;8.63;;
23302;SDS011;11820;48.738;9.092;2024-03-22T01:33:46;13.07;;;7.97;;
23302;SDS011;11820;48.738;9.092;2024-03-22T01:36:11;9.33;;;7.83;;
23302;SDS011;11820;48.738;9.092;2024-03-22T01:38:37;9.90;;;8.60;;
23302;SDS011;11820;48.738;9.092;2024-03-22T01:41:02;9.37;;;8.47;;
23302;SDS011;11820;48.738;9.092;2024-03-22T01:43:27;14.63;;;8.17;;
23302;SDS011;11820;48.738;9.092;2024-03-22T01:45:52;9.10;;;8.23;;
23302;SDS011;11820;48.738;9.092;2024-03-22T01:48:18;8.90;;;8.00;;
23302;SDS011;11820;48.738;9.092;2024-03-22T01:50:43;8.93;;;8.03;;
23302;SDS011;11820;48.738;9.092;2024-03-22T01:53:09;8.43;;;7.10;;
23302;SDS011;11820;48.738;9.092;2024-03-22T01:55:35;7.63;;;6.93;;
23302;SDS011;11820;48.738;9.092;2024-03-22T01:58:00;7.63;;;6.80;;
23302;SDS011;11820;48.738;9.092;2024-03-22T02:00:26;7.37;;;6.63;;
23302;SDS011;11820;48.738;9.092;2024-03-22T02:02:51;7.00;;;6.33;;
23302;SDS011;11820;48.738;9.092;2024-03-22T02:05:17;6.93;;;6.23;;
23302;SDS011;11820;48.738;9.092;2024-03-22T02:07:46;7.30;;;6.70;;
23302;SDS011;11820;48.738;9.092;2024-03-22T02:10:12;7.07;;;6.33;;
23302;SDS011;11820;48.738;9.092;2024-03-22T02:12:39;7.10;;;6.40;;
23302;SDS011;11820;48.738;9.092;2024-03-22T02:15:05;6.80;;;6.10;;
23302;SDS011;11820;48.738;9.092;2024-03-22T02:17:34;6.70;;;6.00;;
23302;SDS011;11820;48.738;9.092;2024-03-22T02:20:00;7.17;;;6.43;;
23302;SDS011;11820;48.738;9.092;2024-03-22T02:22:26;7.17;;;6.47;;
23302;SDS011;11820;48.738;9.092;2024-03-22T02:24:52;8.63;;;7.00;;
23302;SDS011;11820;48.738;9.092;2024-03-22T02:27:17;8.07;;;7.27;;
23302;SDS011;11820;48.738;9.092;2024-03-22T02:29:43;9.17;;;6.83;;
23302;SDS011;11820;48.738;9.092;2024-03-22T02:32:09;8.97;;;6.50;;
23302;SDS011;11820;48.738;9.092;2024-03-22T02:34:34;7.97;;;6.87;;
23302;SDS011;11820;48.738;9.092;2024-03-22T02:37:00;8.90;;;7.03;;
23302;SDS011;11820;48.738;9.092;2024-03-22T02:39:25;8.13;;;7.33;;
23302;SDS011;11820;48.738;9.092;2024-03-22T02:41:50;8.70;;;7.83;;
23302;SDS011;11820;48.738;9.092;2024-03-22T02:44:16;10.80;;;8.40;;
23302;SDS011;11820;48.738;9.092;2024-03-22T02:46:41;10.20;;;8.40;;
23302;SDS011;11820;48.738;9.092;2024-03-22T02:49:07;9.67;;;7.97;;
23302;SDS011;11820;48.738;9.092;2024-03-22T02:51:32;10.57;;;8.60;;
23302;SDS011;11820;48.738;9.092;2024-03-22T02:53:58;8.30;;;7.37;;
23302;SDS011;11820;48.738;9.092;2024-03-22T02:56:23;10.03;;;8.50;;
23302;SDS011;11820;48.738;9.092;2024-03-22T02:58:51;10.77;;;8.87;;
23302;SDS011;11820;48.738;9.092;2024-03-22T03:01:16;15.10;;;9.83;;
23302;SDS011;11820;48.738;9.092;2024-03-22T03:03:42;13.33;;;9.90;;
23302;SDS011;11820;48.738;9.092;2024-03-22T03:06:07;10.63;;;7.77;;
23302;SDS011;11820;48.738;9.092;2024-03-22T03:08:33;9.90;;;8.80;;
23302;SDS011;11820;48.738;9.092;2024-03-22T03:10:59;10.67;;;7.80;;
23302;SDS011;11820;48.738;9.092;2024-03-22T03:13:24;12.27;;;9.27;;
23302;SDS011;11820;48.738;9.092;2024-03-22T03:15:50;12.10;;;8.87;;
23302;SDS011;11820;48.738;9.092;2024-03-22T03:18:15;11.47;;;9.60;;
23302;SDS011;11820;48.738;9.092;2024-03-22T03:20:41;10.00;;;9.00;;
23302;SDS011;11820;48.738;9.092;2024-03-22T03:23:06;12.33;;;10.10;;
23302;SDS011;11820;48.738;9.092;2024-03-22T03:25:31;13.43;;;10.23;;
23302;SDS011;11820;48.738;9.092;2024-03-22T03:27:57;11.43;;;10.23;;
23302;SDS011;11820;48.738;9.092;2024-03-22T03:30:22;9.60;;;8.60;;
23302;SDS011;11820;48.738;9.092;2024-03-22T03:32:47;12.73;;;9.60;;
23302;SDS011;11820;48.738;9.092;2024-03-22T03:35:13;13.73;;;9.83;;
23302;SDS011;11820;48.738;9.092;2024-03-22T03:37:38;10.30;;;9.30;;
23302;SDS011;11820;48.738;9.092;2024-03-22T03:40:03;11.67;;;9.30;;
23302;SDS011;11820;48.738;9.092;2024-03-22T03:42:29;10.33;;;9.07;;
23302;SDS011;11820;48.738;9.092;2024-03-22T03:44:55;9.37;;;8.33;;
23302;SDS011;11820;48.738;9.092;2024-03-22T03:47:20;10.07;;;9.07;;
23302;SDS011;11820;48.738;9.092;2024-03-22T03:49:46;10.23;;;8.87;;
23302;SDS011;11820;48.738;9.092;2024-03-22T03:52:11;10.90;;;9.00;;
23302;SDS011;11820;48.738;9.092;2024-03-22T03:54:36;10.70;;;8.63;;
23302;SDS011;11820;48.738;9.092;2024-03-22T03:57:02;10.37;;;8.90;;
23302;SDS011;11820;48.738;9.092;2024-03-22T03:59:27;9.30;;;8.20;;
23302;SDS011;11820;48.738;9.092;2024-03-22T04:01:53;12.80;;;8.53;;
23302;SDS011;11820;48.738;9.092;2024-03-22T04:04:18;11.37;;;7.93;;
23302;SDS011;11820;48.738;9.092;2024-03-22T04:06:44;11.57;;;8.97;;
23302;SDS011;11820;48.738;9.092;2024-03-22T04:09:09;11.27;;;8.40;;
23302;SDS011;11820;48.738;9.092;2024-03-22T04:11:35;9.93;;;7.67;;
23302;SDS011;11820;48.738;9.092;2024-03-22T04:14:00;10.13;;;9.13;;
23302;SDS011;11820;48.738;9.092;2024-03-22T04:16:25;11.73;;;8.97;;
23302;SDS011;11820;48.738;9.092;2024-03-22T04:18:51;8.73;;;7.83;;
23302;SDS011;11820;48.738;9.092;2024-03-22T04:21:17;10.23;;;8.50;;
23302;SDS011;11820;48.738;9.092;2024-03-22T04:23:42;9.73;;;7.73;;
23302;SDS011;11820;48.738;9.092;2024-03-22T04:26:08;7.80;;;7.00;;
23302;SDS011;11820;48.738;9.092;2024-03-22T04:28:33;10.43;;;7.60;;
23302;SDS011;11820;48.738;9.092;2024-03-22T04:30:59;8.57;;;7.67;;
23302;SDS011;11820;48.738;9.092;2024-03-22T04:33:32;10.00;;;7.23;;
23302;SDS011;11820;48.738;9.092;2024-03-22T04:35:58;10.17;;;7.97;;
23302;SDS011;11820;48.738;9.092;2024-03-22T04:38:24;9.47;;;7.60;;
23302;SDS011;11820;48.738;9.092;2024-03-22T04:40:51;8.37;;;7.17;;
23302;SDS011;11820;48.738;9.092;2024-03-22T04:43:17;9.80;;;7.90;;
23302;SDS011;11820;48.738;9.092;2024-03-22T04:45:43;9.70;;;8.20;;
23302;SDS011;11820;48.738;9.092;2024-03-22T04:48:08;11.53;;;7.90;;
23302;SDS011;11820;48.738;9.092;2024-03-22T04:50:34;8.90;;;7.27;;
23302;SDS011;11820;48.738;9.092;2024-03-22T04:53:00;8.63;;;7.67;;
23302;SDS011;11820;48.738;9.092;2024-03-22T04:55:26;8.33;;;7.47;;
23302;SDS011;11820;48.738;9.092;2024-03-22T04:57:52;8.33;;;7.43;;
23302;SDS011;11820;48.738;9.092;2024-03-22T05:00:17;7.67;;;6.90;;
23302;SDS011;11820;48.738;9.092;2024-03-22T05:02:43;10.27;;;7.87;;
23302;SDS011;11820;48.738;9.092;2024-03-22T05:05:08;8.30;;;7.50;;
23302;SDS011;11820;48.738;9.092;2024-03-22T05:07:34;13.63;;;8.33;;
23302;SDS011;11820;48.738;9.092;2024-03-22T05:10:00;10.23;;;8.67;;
23302;SDS011;11820;48.738;9.092;2024-03-22T05:12:26;7.97;;;7.13;;
23302;SDS011;11820;48.738;9.092;2024-03-22T05:14:51;11.50;;;8.07;;
23302;SDS011;11820;48.738;9.092;2024-03-22T05:17:16;9.97;;;8.57;;
23302;SDS011;11820;48.738;9.092;2024-03-22T05:19:42;9.70;;;8.43;;
23302;SDS011;11820;48.738;9.092;2024-03-22T05:22:07;9.47;;;8.33;;
23302;SDS011;11820;48.738;9.092;2024-03-22T05:24:32;10.97;;;9.00;;
23302;SDS011;11820;48.738;9.092;2024-03-22T05:26:58;9.20;;;8.20;;
23302;SDS011;11820;48.738;9.092;2024-03-22T05:29:25;9.83;;;8.17;;
23302;SDS011;11820;48.738;9.092;2024-03-22T05:31:50;9.20;;;7.93;;
23302;SDS011;11820;48.738;9.092;2024-03-22T05:34:16;11.00;;;8.67;;
23302;SDS011;11820;48.738;9.092;2024-03-22T05:36:41;9.93;;;8.00;;
23302;SDS011;11820;48.738;9.092;2024-03-22T05:39:07;11.47;;;9.03;;
23302;SDS011;11820;48.738;9.092;2024-03-22T05:41:33;8.30;;;7.50;;
23302;SDS011;11820;48.738;9.092;2024-03-22T05:43:58;9.13;;;7.90;;
23302;SDS011;11820;48.738;9.092;2024-03-22T05:46:23;8.60;;;7.80;;
23302;SDS011;11820;48.738;9.092;2024-03-22T05:48:49;14.43;;;8.30;;
23302;SDS011;11820;48.738;9.092;2024-03-22T05:51:15;9.57;;;7.60;;
23302;SDS011;11820;48.738;9.092;2024-03-22T05:53:41;11.40;;;8.43;;
23302;SDS011;11820;48.738;9.092;2024-03-22T05:56:07;9.13;;;8.13;;
23302;SDS011;11820;48.738;9.092;2024-03-22T05:58:33;8.67;;;7.67;;
23302;SDS011;11820;48.738;9.092;2024-03-22T06:00:58;9.17;;;7.77;;
23302;SDS011;11820;48.738;9.092;2024-03-22T06:03:23;11.67;;;8.17;;
23302;SDS011;11820;48.738;9.092;2024-03-22T06:05:49;14.23;;;8.87;;
23302;SDS011;11820;48.738;9.092;2024-03-22T06:08:14;10.57;;;8.53;;
23302;SDS011;11820;48.738;9.092;2024-03-22T06:10:44;9.87;;;8.13;;
23302;SDS011;11820;48.738;9.092;2024-03-22T06:13:10;10.57;;;8.43;;
23302;SDS011;11820;48.738;9.092;2024-03-22T06:15:35;10.10;;;7.63;;
23302;SDS011;11820;48.738;9.092;2024-03-22T06:18:01;12.17;;;8.83;;
23302;SDS011;11820;48.738;9.092;2024-03-22T06:20:26;11.43;;;7.67;;
23302;SDS011;11820;48.738;9.092;2024-03-22T06:22:52;14.80;;;8.07;;
23302;SDS011;11820;48.738;9.092;2024-03-22T06:25:17;9.57;;;8.27;;
23302;SDS011;11820;48.738;9.092;2024-03-22T06:27:42;11.90;;;8.00;;
23302;SDS011;11820;48.738;9.092;2024-03-22T06:30:09;8.90;;;8.00;;
23302;SDS011;11820;48.738;9.092;2024-03-22T06:32:35;9.30;;;8.40;;
23302;SDS011;11820;48.738;9.092;2024-03-22T06:35:00;8.73;;;7.57;;
23302;SDS011;11820;48.738;9.092;2024-03-22T06:37:25;11.43;;;8.00;;
23302;SDS011;11820;48.738;9.092;2024-03-22T06:39:51;12.63;;;9.20;;
23302;SDS011;11820;48.738;9.092;2024-03-22T06:42:16;11.60;;;8.90;;
23302;SDS011;11820;48.738;9.092;2024-03-22T06:44:42;13.10;;;8.10;;
23302;SDS011;11820;48.738;9.092;2024-03-22T06:47:07;11.33;;;8.67;;
23302;SDS011;11820;48.738;9.092;2024-03-22T06:49:32;10.63;;;8.77;;
23302;SDS011;11820;48.738;9.092;2024-03-22T06:51:58;11.73;;;7.80;;
23302;SDS011;11820;48.738;9.092;2024-03-22T06:54:24;9.57;;;8.57;;
23302;SDS011;11820;48.738;9.092;2024-03-22T06:56:51;9.83;;;8.23;;
23302;SDS011;11820;48.738;9.092;2024-03-22T06:59:16;11.40;;;8.57;;
23302;SDS011;11820;48.738;9.092;2024-03-22T07:01:42;10.50;;;8.40;;
23302;SDS011;11820;48.738;9.092;2024-03-22T07:04:07;9.30;;;8.23;;
23302;SDS011;11820;48.738;9.092;2024-03-22T07:06:33;8.83;;;7.93;;
23302;SDS011;11820;48.738;9.092;2024-03-22T07:08:58;8.77;;;7.53;;
23302;SDS011;11820;48.738;9.092;2024-03-22T07:11:23;10.10;;;7.87;;
23302;SDS011;11820;48.738;9.092;2024-03-22T07:13:49;8.57;;;7.47;;
23302;SDS011;11820;48.738;9.092;2024-03-22T07:16:14;13.43;;;8.83;;
23302;SDS011;11820;48.738;9.092;2024-03-22T07:18:39;10.93;;;9.13;;
23302;SDS011;11820;48.738;9.092;2024-03-22T07:21:05;12.10;;;8.80;;
23302;SDS011;11820;48.738;9.092;2024-03-22T07:23:30;9.83;;;8.43;;
23302;SDS011;11820;48.738;9.092;2024-03-22T07:25:56;10.73;;;7.80;;
23302;SDS011;11820;48.738;9.092;2024-03-22T07:28:21;11.10;;;9.00;;
23302;SDS011;11820;48.738;9.092;2024-03-22T07:30:46;11.70;;;8.50;;
23302;SDS011;11820;48.738;9.092;2024-03-22T07:33:12;11.07;;;9.97;;
23302;SDS011;11820;48.738;9.092;2024-03-22T07:35:42;11.57;;;9.00;;
23302;SDS011;11820;48.738;9.092;2024-03-22T07:38:09;10.70;;;9.57;;
23302;SDS011;11820;48.738;9.092;2024-03-22T07:40:35;10.90;;;8.80;;
23302;SDS011;11820;48.738;9.092;2024-03-22T07:43:00;15.33;;;9.20;;
23302;SDS011;11820;48.738;9.092;2024-03-22T07:45:31;10.30;;;8.77;;
23302;SDS011;11820;48.738;9.092;2024-03-22T07:47:57;9.97;;;8.93;;
23302;SDS011;11820;48.738;9.092;2024-03-22T07:50:22;10.23;;;8.63;;
23302;SDS011;11820;48.738;9.092;2024-03-22T07:52:47;10.40;;;8.80;;
23302;SDS011;11820;48.738;9.092;2024-03-22T07:55:13;13.27;;;9.63;;
23302;SDS011;11820;48.738;9.092;2024-03-22T07:57:38;10.23;;;9.03;;
23302;SDS011;11820;48.738;9.092;2024-03-22T08:00:04;10.30;;;9.03;;
23302;SDS011;11820;48.738;9.092;2024-03-22T08:02:29;9.67;;;8.17;;
23302;SDS011;11820;48.738;9.092;2024-03-22T08:04:55;11.30;;;8.07;;
23302;SDS011;11820;48.738;9.092;2024-03-22T08:07:20;10.23;;;8.37;;
23302;SDS011;11820;48.738;9.092;2024-03-22T08:09:45;8.73;;;7.77;;
23302;SDS011;11820;48.738;9.092;2024-03-22T08:12:11;11.00;;;7.97;;
23302;SDS011;11820;48.738;9.092;2024-03-22T08:14:36;10.10;;;8.20;;
23302;SDS011;11820;48.738;9.092;2024-03-22T08:17:02;9.37;;;7.97;;
23302;SDS011;11820;48.738;9.092;2024-03-22T08:19:28;10.30;;;7.60;;
23302;SDS011;11820;48.738;9.092;2024-03-22T08:21:53;10.80;;;7.10;;
23302;SDS011;11820;48.738;9.092;2024-03-22T08:24:19;9.07;;;7.67;;
23302;SDS011;11820;48.738;9.092;2024-03-22T08:26:44;9.17;;;7.40;;
23302;SDS011;11820;48.738;9.092;2024-03-22T08:29:12;9.83;;;8.37;;
23302;SDS011;11820;48.738;9.092;2024-03-22T08:31:39;8.20;;;7.30;;
23302;SDS011;11820;48.738;9.092;2024-03-22T08:34:05;10.17;;;7.07;;
23302;SDS011;11820;48.738;9.092;2024-03-22T08:36:30;10.07;;;7.60;;
23302;SDS011;11820;48.738;9.092;2024-03-22T08:38:56;7.53;;;6.20;;
23302;SDS011;11820;48.738;9.092;2024-03-22T08:41:21;8.70;;;6.83;;
23302;SDS011;11820;48.738;9.092;2024-03-22T08:43:46;8.80;;;6.87;;
23302;SDS011;11820;48.738;9.092;2024-03-22T08:46:12;9.53;;;7.33;;
23302;SDS011;11820;48.738;9.092;2024-03-22T08:48:37;9.07;;;6.47;;
23302;SDS011;11820;48.738;9.092;2024-03-22T08:51:02;10.73;;;7.00;;
23302;SDS011;11820;48.738;9.092;2024-03-22T08:53:28;10.27;;;7.27;;
23302;SDS011;11820;48.738;9.092;2024-03-22T08:55:53;8.53;;;7.03;;
23302;SDS011;11820;48.738;9.092;2024-03-22T08:58:18;8.23;;;6.97;;
23302;SDS011;11820;48.738;9.092;2024-03-22T09:00:44;10.27;;;6.83;;
23302;SDS011;11820;48.738;9.092;2024-03-22T09:03:09;9.70;;;7.00;;
23302;SDS011;11820;48.738;9.092;2024-03-22T09:05:35;9.10;;;6.80;;
23302;SDS011;11820;48.738;9.092;2024-03-22T09:08:01;7.63;;;6.60;;
23302;SDS011;11820;48.738;9.092;2024-03-22T09:10:28;11.07;;;6.40;;
23302;SDS011;11820;48.738;9.092;2024-03-22T09:12:54;8.83;;;6.63;;
23302;SDS011;11820;48.738;9.092;2024-03-22T09:15:20;7.57;;;6.50;;
23302;SDS011;11820;48.738;9.092;2024-03-22T09:17:46;10.03;;;7.57;;
23302;SDS011;11820;48.738;9.092;2024-03-22T09:20:12;8.97;;;6.37;;
23302;SDS011;11820;48.738;9.092;2024-03-22T09:22:37;8.57;;;6.17;;
23302;SDS011;11820;48.738;9.092;2024-03-22T09:25:04;13.43;;;6.70;;
23302;SDS011;11820;48.738;9.092;2024-03-22T09:27:30;9.17;;;6.27;;
23302;SDS011;11820;48.738;9.092;2024-03-22T09:29:55;10.17;;;5.53;;
23302;SDS011;11820;48.738;9.092;2024-03-22T09:32:20;6.03;;;5.43;;
23302;SDS011;11820;48.738;9.092;2024-03-22T09:34:48;6.23;;;5.03;;
23302;SDS011;11820;48.738;9.092;2024-03-22T09:37:15;7.13;;;5.23;;
23302;SDS011;11820;48.738;9.092;2024-03-22T09:39:40;8.23;;;5.80;;
23302;SDS011;11820;48.738;9.092;2024-03-22T09:42:06;10.13;;;5.80;;
23302;SDS011;11820;48.738;9.092;2024-03-22T09:44:32;7.07;;;4.33;;
23302;SDS011;11820;48.738;9.092;2024-03-22T09:46:58;5.63;;;5.00;;
23302;SDS011;11820;48.738;9.092;2024-03-22T09:49:24;7.70;;;4.97;;
23302;SDS011;11820;48.738;9.092;2024-03-22T09:51:50;5.47;;;4.60;;
23302;SDS011;11820;48.738;9.092;2024-03-22T09:54:17;6.47;;;4.40;;
23302;SDS011;11820;48.738;9.092;2024-03-22T09:56:42;6.80;;;4.47;;
23302;SDS011;11820;48.738;9.092;2024-03-22T09:59:09;6.87;;;4.10;;
23302;SDS011;11820;48.738;9.092;2024-03-22T10:01:37;5.80;;;4.43;;
23302;SDS011;11820;48.738;9.092;2024-03-22T10:04:04;6.47;;;4.93;;
23302;SDS011;11820;48.738;9.092;2024-03-22T10:06:30;8.73;;;5.00;;
23302;SDS011;11820;48.738;9.092;2024-03-22T10:09:00;5.73;;;4.50;;
23302;SDS011;11820;48.738;9.092;2024-03-22T10:11:28;7.23;;;5.23;;
23302;SDS011;11820;48.738;9.092;2024-03-22T10:13:54;6.27;;;5.20;;
23302;SDS011;11820;48.738;9.092;2024-03-22T10:16:20;5.87;;;4.37;;
23302;SDS011;11820;48.738;9.092;2024-03-22T10:18:46;6.80;;;5.37;;
23302;SDS011;11820;48.738;9.092;2024-03-22T10:21:16;8.80;;;5.30;;
23302;SDS011;11820;48.738;9.092;2024-03-22T10:23:43;6.33;;;4.60;;
23302;SDS011;11820;48.738;9.092;2024-03-22T10:26:09;7.27;;;5.30;;
23302;SDS011;11820;48.738;9.092;2024-03-22T10:28:35;6.27;;;4.83;;
23302;SDS011;11820;48.738;9.092;2024-03-22T10:31:00;11.30;;;5.90;;
23302;SDS011;11820;48.738;9.092;2024-03-22T10:33:27;6.60;;;5.17;;
23302;SDS011;11820;48.738;9.092;2024-03-22T10:35:53;7.47;;;5.30;;
23302;SDS011;11820;48.738;9.092;2024-03-22T10:38:19;6.30;;;4.60;;
23302;SDS011;11820;48.738;9.092;2024-03-22T10:40:46;4.97;;;4.17;;
23302;SDS011;11820;48.738;9.092;2024-03-22T10:43:12;5.27;;;4.30;;
23302;SDS011;11820;48.738;9.092;2024-03-22T10:45:38;5.13;;;3.50;;
23302;SDS011;11820;48.738;9.092;2024-03-22T10:48:07;4.63;;;3.27;;
23302;SDS011;11820;48.738;9.092;2024-03-22T10:50:35;3.60;;;3.03;;
23302;SDS011;11820;48.738;9.092;2024-03-22T10:53:04;4.13;;;2.43;;
23302;SDS011;11820;48.738;9.092;2024-03-22T10:55:38;4.00;;;2.47;;
23302;SDS011;11820;48.738;9.092;2024-03-22T10:58:14;3.37;;;2.53;;
23302;SDS011;11820;48.738;9.092;2024-03-22T11:00:42;3.63;;;3.07;;
23302;SDS011;11820;48.738;9.092;2024-03-22T11:03:08;5.53;;;3.57;;
23302;SDS011;11820;48.738;9.092;2024-03-22T11:05:34;3.83;;;3.13;;
23302;SDS011;11820;48.738;9.092;2024-03-22T11:08:03;4.70;;;3.40;;
23302;SDS011;11820;48.738;9.092;2024-03-22T11:10:35;4.67;;;3.57;;
23302;SDS011;11820;48.738;9.092;2024-03-22T11:13:01;4.13;;;2.90;;
23302;SDS011;11820;48.738;9.092;2024-03-22T11:15:28;5.53;;;2.90;;
23302;SDS011;11820;48.738;9.092;2024-03-22T11:17:54;5.17;;;2.70;;
23302;SDS011;11820;48.738;9.092;2024-03-22T11:20:19;3.17;;;2.70;;
23302;SDS011;11820;48.738;9.092;2024-03-22T11:22:44;5.13;;;3.00;;
23302;SDS011;11820;48.738;9.092;2024-03-22T11:25:10;3.80;;;2.60;;
23302;SDS011;11820;48.738;9.092;2024-03-22T11:27:35;3.87;;;2.33;;
23302;SDS011;11820;48.738;9.092;2024-03-22T11:30:01;3.43;;;2.07;;
23302;SDS011;11820;48.738;9.092;2024-03-22T11:32:26;3.93;;;2.30;;
23302;SDS011;11820;48.738;9.092;2024-03-22T11:34:51;3.90;;;2.67;;
23302;SDS011;11820;48.738;9.092;2024-03-22T11:37:17;3.23;;;2.00;;
23302;SDS011;11820;48.738;9.092;2024-03-22T11:39:42;4.70;;;2.33;;
23302;SDS011;11820;48.738;9.092;2024-03-22T11:42:08;2.43;;;2.00;;
23302;SDS011;11820;48.738;9.092;2024-03-22T11:44:34;2.20;;;2.00;;
23302;SDS011;11820;48.738;9.092;2024-03-22T11:47:02;4.37;;;2.13;;
23302;SDS011;11820;48.738;9.092;2024-03-22T11:49:28;3.90;;;2.10;;
23302;SDS011;11820;48.738;9.092;2024-03-22T11:51:55;3.67;;;2.53;;
23302;SDS011;11820;48.738;9.092;2024-03-22T11:54:21;3.37;;;2.40;;
23302;SDS011;11820;48.738;9.092;2024-03-22T11:56:46;4.07;;;2.17;;
23302;SDS011;11820;48.738;9.092;2024-03-22T11:59:12;3.03;;;2.07;;
23302;SDS011;11820;48.738;9.092;2024-03-22T12:01:37;3.63;;;2.30;;
23302;SDS011;11820;48.738;9.092;2024-03-22T12:04:03;3.43;;;2.87;;
23302;SDS011;11820;48.738;9.092;2024-03-22T12:06:29;3.57;;;2.27;;
23302;SDS011;11820;48.738;9.092;2024-03-22T12:08:57;3.87;;;2.27;;
23302;SDS011;11820;48.738;9.092;2024-03-22T12:11:22;4.30;;;2.00;;
23302;SDS011;11820;48.738;9.092;2024-03-22T12:13:47;2.33;;;1.83;;
23302;SDS011;11820;48.738;9.092;2024-03-22T12:16:13;3.57;;;2.23;;
23302;SDS011;11820;48.738;9.092;2024-03-22T12:18:38;5.40;;;2.57;;
23302;SDS011;11820;48.738;9.092;2024-03-22T12:21:04;3.30;;;2.30;;
23302;SDS011;11820;48.738;9.092;2024-03-22T12:23:29;3.80;;;2.53;;
23302;SDS011;11820;48.738;9.092;2024-03-22T12:25:54;2.60;;;2.37;;
23302;SDS011;11820;48.738;9.092;2024-03-22T12:28:21;4.20;;;2.03;;
23302;SDS011;11820;48.738;9.092;2024-03-22T12:30:46;3.23;;;1.70;;
23302;SDS011;11820;48.738;9.092;2024-03-22T12:33:13;2.73;;;2.10;;
23302;SDS011;11820;48.738;9.092;2024-03-22T12:35:39;3.37;;;2.03;;
23302;SDS011;11820;48.738;9.092;2024-03-22T12:38:05;4.17;;;2.30;;
23302;SDS011;11820;48.738;9.092;2024-03-22T12:40:30;3.90;;;2.60;;
23302;SDS011;11820;48.738;9.092;2024-03-22T12:42:57;2.67;;;2.30;;
23302;SDS011;11820;48.738;9.092;2024-03-22T12:45:23;3.13;;;2.20;;
23302;SDS011;11820;48.738;9.092;2024-03-22T12:47:48;4.20;;;2.50;;
23302;SDS011;11820;48.738;9.092;2024-03-22T12:50:14;3.07;;;2.47;;
23302;SDS011;11820;48.738;9.092;2024-03-22T12:52:40;2.67;;;2.10;;
23302;SDS011;11820;48.738;9.092;2024-03-22T12:55:05;4.20;;;2.60;;
23302;SDS011;11820;48.738;9.092;2024-03-22T12:57:31;4.63;;;3.17;;
23302;SDS011;11820;48.738;9.092;2024-03-22T12:59:57;3.90;;;3.03;;
23302;SDS011;11820;48.738;9.092;2024-03-22T13:02:23;5.10;;;2.90;;
23302;SDS011;11820;48.738;9.092;2024-03-22T13:04:49;4.10;;;3.03;;
23302;SDS011;11820;48.738;9.092;2024-03-22T13:07:15;3.77;;;2.73;;
23302;SDS011;11820;48.738;9.092;2024-03-22T13:09:41;3.77;;;3.27;;
23302;SDS011;11820;48.738;9.092;2024-03-22T13:12:10;4.57;;;3.27;;
23302;SDS011;11820;48.738;9.092;2024-03-22T13:14:35;5.53;;;3.30;;
23302;SDS011;11820;48.738;9.092;2024-03-22T13:17:01;3.37;;;3.07;;
23302;SDS011;11820;48.738;9.092;2024-03-22T13:19:26;4.27;;;3.13;;
23302;SDS011;11820;48.738;9.092;2024-03-22T13:21:52;5.23;;;2.77;;
23302;SDS011;11820;48.738;9.092;2024-03-22T13:24:17;3.77;;;2.80;;
23302;SDS011;11820;48.738;9.092;2024-03-22T13:26:43;3.33;;;2.57;;
23302;SDS011;11820;48.738;9.092;2024-03-22T13:29:08;3.50;;;2.40;;
23302;SDS011;11820;48.738;9.092;2024-03-22T13:31:33;4.27;;;2.70;;
23302;SDS011;11820;48.738;9.092;2024-03-22T13:33:59;3.13;;;2.37;;
23302;SDS011;11820;48.738;9.092;2024-03-22T13:36:24;5.23;;;2.80;;
23302;SDS011;11820;48.738;9.092;2024-03-22T13:38:50;3.83;;;2.30;;
23302;SDS011;11820;48.738;9.092;2024-03-22T13:41:16;4.20;;;3.23;;
23302;SDS011;11820;48.738;9.092;2024-03-22T13:43:42;4.40;;;2.73;;
23302;SDS011;11820;48.738;9.092;2024-03-22T13:46:09;3.77;;;2.50;;
23302;SDS011;11820;48.738;9.092;2024-03-22T13:48:37;2.93;;;2.23;;
23302;SDS011;11820;48.738;9.092;2024-03-22T13:51:02;3.33;;;2.20;;
23302;SDS011;11820;48.738;9.092;2024-03-22T13:53:28;2.80;;;2.60;;
23302;SDS011;11820;48.738;9.092;2024-03-22T13:55:53;3.17;;;2.20;;
23302;SDS011;11820;48.738;9.092;2024-03-22T13:58:19;4.30;;;2.37;;
23302;SDS011;11820;48.738;9.092;2024-03-22T14:00:45;4.87;;;1.97;;
23302;SDS011;11820;48.738;9.092;2024-03-22T14:03:10;5.40;;;2.43;;
23302;SDS011;11820;48.738;9.092;2024-03-22T14:05:36;3.53;;;2.40;;
23302;SDS011;11820;48.738;9.092;2024-03-22T14:08:01;3.23;;;2.50;;
23302;SDS011;11820;48.738;9.092;2024-03-22T14:10:28;2.27;;;2.07;;
23302;SDS011;11820;48.738;9.092;2024-03-22T14:12:56;3.97;;;2.93;;
23302;SDS011;11820;48.738;9.092;2024-03-22T14:15:22;4.70;;;2.33;;
23302;SDS011;11820;48.738;9.092;2024-03-22T14:17:49;4.33;;;2.20;;
23302;SDS011;11820;48.738;9.092;2024-03-22T14:20:15;4.50;;;2.10;;
23302;SDS011;11820;48.738;9.092;2024-03-22T14:22:42;7.90;;;2.83;;
23302;SDS011;11820;48.738;9.092;2024-03-22T14:25:07;2.53;;;1.77;;
23302;SDS011;11820;48.738;9.092;2024-03-22T14:27:33;8.67;;;2.63;;
23302;SDS011;11820;48.738;9.092;2024-03-22T14:30:02;3.77;;;2.60;;
23302;SDS011;11820;48.738;9.092;2024-03-22T14:32:31;3.33;;;2.97;;
23302;SDS011;11820;48.738;9.092;2024-03-22T14:34:57;5.27;;;3.27;;